Marlboro, VT

7:40 PM EDT on April 18, 2015 (GMT -0400)
Dillant-Hopkins | | Change Station
CLOSE
Current Station
Airport
Location: Keene,
Elevation: 489 ft
Nearby Weather Stations
Active Advisory: Special Statement

Elev 489 ft 42.90 °N, 72.27 °W | Updated 5 minutes ago

Clear
Clear
59 °F
Feels Like 59 °F
N
12
Wind Variable Wind from North

Today
High -- | Low -- °F
--% Chance of Precip.
Yesterday
High -- | Low -- °F
Precip. -- in
6:04 AM 7:36 PM
New Moon, 0% visible
Pressure 29.94 in
Visibility 10.0 miles
Clouds Clear
Dew Point 36 °F
Humidity 42%
Rainfall 0.00 in
Snow Depth Not available.
UV 0 out of 12
Pollen 10.50 out of 12
Air Quality Not available.
Flu Activity Regional
METAR KEEN 182335Z AUTO 36010KT 10SM CLR 15/02 A2994 RMK AO1

More Conditions Fewer Conditions

Pressure 29.94 in
Visibility 10.0 miles
Clouds Clear
Dew Point 36 °F
Humidity 42%
Rainfall 0.00 in
Snow Depth Not available.
UV 0 out of 12
Pollen 10.50 out of 12
Air Quality Not available.
Flu Activity Regional
METAR KEEN 182335Z AUTO 36010KT 10SM CLR 15/02 A2994 RMK AO1

More Conditions Fewer Conditions

10-Day Weather Forecast

Almanac

Astronomy

Apr. 18, 2015 Rise Set
Actual Time
Civil Twilight
Nautical Twilight
Astronomical Twilight
Moon
Length of Visible Light
Length of Day
Tomorrow will be .
, % of the Moon is Illuminated

Today's Extremes

State Highs State Lows

Community

WunderPhotos

Upload Photos

1,814,580 photos uploaded!

WunderBlogs® & News

Nearby

Air Quality

  Air Quality AQ Index Pollutant
Not available.

Snow Depth

Station Depth Elevation

Earthquake Activity

City Distance Mag. Time & Date
Minimum magnitude displayed is 2.5.

Coastal Water Temperatures

Place Temperature

Stations

Nearby Weather Stations

Station Location Temp. Windchill Dew Point Humidity Wind Precip. Elev Updated Type
                   
Special Statement
Statement as of 12:16 PM EDT on April 18, 2015

... Localized fire weather concerns across southern Vermont this
afternoon...

The combination of gusty winds... low relative humidity values and
dry fuels will result in an enhanced risk for the growth and
spread of any outdoor fires across southern Vermont this afternoon
into the early evening.

Westerly winds will gusty up to around 25 mph as relative humidity
values drop into the mid 20s to lower 30s. Conditions will improve
after sunset as winds weaken and relative humidities rise.